sensor_id;sensor_type;location;lat;lon;timestamp;P1;durP1;ratioP1;P2;durP2;ratioP2
15240;SDS011;7723;52.170;9.978;2023-03-01T00:02:08;16.90;;;10.03;;
15240;SDS011;7723;52.170;9.978;2023-03-01T00:04:35;19.03;;;11.23;;
15240;SDS011;7723;52.170;9.978;2023-03-01T00:07:02;23.60;;;11.67;;
15240;SDS011;7723;52.170;9.978;2023-03-01T00:09:31;19.80;;;10.77;;
15240;SDS011;7723;52.170;9.978;2023-03-01T00:11:58;22.93;;;12.13;;
15240;SDS011;7723;52.170;9.978;2023-03-01T00:14:25;21.67;;;11.13;;
15240;SDS011;7723;52.170;9.978;2023-03-01T00:16:52;15.10;;;9.57;;
15240;SDS011;7723;52.170;9.978;2023-03-01T00:19:19;19.40;;;10.97;;
15240;SDS011;7723;52.170;9.978;2023-03-01T00:21:47;21.10;;;10.70;;
15240;SDS011;7723;52.170;9.978;2023-03-01T00:24:15;20.07;;;11.13;;
15240;SDS011;7723;52.170;9.978;2023-03-01T00:26:44;18.23;;;10.40;;
15240;SDS011;7723;52.170;9.978;2023-03-01T00:29:11;18.00;;;9.90;;
15240;SDS011;7723;52.170;9.978;2023-03-01T00:31:38;17.70;;;10.00;;
15240;SDS011;7723;52.170;9.978;2023-03-01T00:34:05;18.20;;;9.93;;
15240;SDS011;7723;52.170;9.978;2023-03-01T00:36:34;20.13;;;10.70;;
15240;SDS011;7723;52.170;9.978;2023-03-01T00:39:03;16.87;;;10.03;;
15240;SDS011;7723;52.170;9.978;2023-03-01T00:41:31;18.93;;;10.90;;
15240;SDS011;7723;52.170;9.978;2023-03-01T00:44:01;19.80;;;10.30;;
15240;SDS011;7723;52.170;9.978;2023-03-01T00:46:28;18.60;;;10.63;;
15240;SDS011;7723;52.170;9.978;2023-03-01T00:48:56;18.37;;;11.03;;
15240;SDS011;7723;52.170;9.978;2023-03-01T00:51:24;17.70;;;9.83;;
15240;SDS011;7723;52.170;9.978;2023-03-01T00:53:53;17.63;;;10.10;;
15240;SDS011;7723;52.170;9.978;2023-03-01T00:56:21;16.00;;;9.60;;
15240;SDS011;7723;52.170;9.978;2023-03-01T00:58:49;17.60;;;9.37;;
15240;SDS011;7723;52.170;9.978;2023-03-01T01:01:19;17.57;;;9.50;;
15240;SDS011;7723;52.170;9.978;2023-03-01T01:03:48;21.80;;;10.93;;
15240;SDS011;7723;52.170;9.978;2023-03-01T01:06:17;19.33;;;10.70;;
15240;SDS011;7723;52.170;9.978;2023-03-01T01:08:46;16.53;;;10.10;;
15240;SDS011;7723;52.170;9.978;2023-03-01T01:11:14;16.80;;;9.10;;
15240;SDS011;7723;52.170;9.978;2023-03-01T01:13:43;18.20;;;10.67;;
15240;SDS011;7723;52.170;9.978;2023-03-01T01:16:11;19.97;;;10.23;;
15240;SDS011;7723;52.170;9.978;2023-03-01T01:18:40;19.83;;;9.83;;
15240;SDS011;7723;52.170;9.978;2023-03-01T01:21:08;16.73;;;10.00;;
15240;SDS011;7723;52.170;9.978;2023-03-01T01:23:37;30.13;;;11.90;;
15240;SDS011;7723;52.170;9.978;2023-03-01T01:26:06;19.63;;;9.57;;
15240;SDS011;7723;52.170;9.978;2023-03-01T01:28:34;20.70;;;10.23;;
15240;SDS011;7723;52.170;9.978;2023-03-01T01:31:02;18.07;;;9.60;;
15240;SDS011;7723;52.170;9.978;2023-03-01T01:33:29;19.10;;;9.57;;
15240;SDS011;7723;52.170;9.978;2023-03-01T01:35:58;17.63;;;9.10;;
15240;SDS011;7723;52.170;9.978;2023-03-01T01:38:25;18.50;;;9.57;;
15240;SDS011;7723;52.170;9.978;2023-03-01T01:40:52;18.10;;;9.40;;
15240;SDS011;7723;52.170;9.978;2023-03-01T01:43:21;15.67;;;9.07;;
15240;SDS011;7723;52.170;9.978;2023-03-01T01:45:50;18.30;;;9.87;;
15240;SDS011;7723;52.170;9.978;2023-03-01T01:48:22;15.13;;;8.40;;
15240;SDS011;7723;52.170;9.978;2023-03-01T01:51:06;14.47;;;8.63;;
15240;SDS011;7723;52.170;9.978;2023-03-01T01:53:37;16.33;;;8.63;;
15240;SDS011;7723;52.170;9.978;2023-03-01T01:56:06;18.23;;;9.60;;
15240;SDS011;7723;52.170;9.978;2023-03-01T01:58:35;16.53;;;8.90;;
15240;SDS011;7723;52.170;9.978;2023-03-01T02:01:03;18.13;;;8.50;;
15240;SDS011;7723;52.170;9.978;2023-03-01T02:03:31;12.93;;;8.10;;
15240;SDS011;7723;52.170;9.978;2023-03-01T02:06:03;17.63;;;8.67;;
15240;SDS011;7723;52.170;9.978;2023-03-01T02:08:36;16.50;;;9.20;;
15240;SDS011;7723;52.170;9.978;2023-03-01T02:11:06;13.40;;;8.60;;
15240;SDS011;7723;52.170;9.978;2023-03-01T02:13:35;14.30;;;7.60;;
15240;SDS011;7723;52.170;9.978;2023-03-01T02:16:03;13.73;;;8.10;;
15240;SDS011;7723;52.170;9.978;2023-03-01T02:18:31;21.47;;;8.27;;
15240;SDS011;7723;52.170;9.978;2023-03-01T02:21:03;19.10;;;8.07;;
15240;SDS011;7723;52.170;9.978;2023-03-01T02:23:41;12.87;;;7.77;;
15240;SDS011;7723;52.170;9.978;2023-03-01T02:26:11;16.47;;;8.90;;
15240;SDS011;7723;52.170;9.978;2023-03-01T02:28:47;14.70;;;7.90;;
15240;SDS011;7723;52.170;9.978;2023-03-01T02:31:16;19.00;;;8.57;;
15240;SDS011;7723;52.170;9.978;2023-03-01T02:34:03;12.63;;;8.33;;
15240;SDS011;7723;52.170;9.978;2023-03-01T02:36:31;13.20;;;7.67;;
15240;SDS011;7723;52.170;9.978;2023-03-01T02:39:03;15.10;;;8.00;;
15240;SDS011;7723;52.170;9.978;2023-03-01T02:41:34;14.63;;;8.57;;
15240;SDS011;7723;52.170;9.978;2023-03-01T02:44:05;13.83;;;8.27;;
15240;SDS011;7723;52.170;9.978;2023-03-01T02:46:33;13.77;;;8.40;;
15240;SDS011;7723;52.170;9.978;2023-03-01T02:49:15;16.50;;;8.00;;
15240;SDS011;7723;52.170;9.978;2023-03-01T02:51:47;17.60;;;8.97;;
15240;SDS011;7723;52.170;9.978;2023-03-01T02:54:23;12.07;;;7.17;;
15240;SDS011;7723;52.170;9.978;2023-03-01T02:56:54;13.77;;;7.70;;
15240;SDS011;7723;52.170;9.978;2023-03-01T02:59:24;13.13;;;7.77;;
15240;SDS011;7723;52.170;9.978;2023-03-01T03:01:55;18.40;;;8.17;;
15240;SDS011;7723;52.170;9.978;2023-03-01T03:04:22;12.53;;;7.37;;
15240;SDS011;7723;52.170;9.978;2023-03-01T03:06:49;14.80;;;8.13;;
15240;SDS011;7723;52.170;9.978;2023-03-01T03:09:17;13.23;;;7.97;;
15240;SDS011;7723;52.170;9.978;2023-03-01T03:11:45;13.53;;;7.63;;
15240;SDS011;7723;52.170;9.978;2023-03-01T03:14:14;14.87;;;7.70;;
15240;SDS011;7723;52.170;9.978;2023-03-01T03:16:44;14.13;;;8.20;;
15240;SDS011;7723;52.170;9.978;2023-03-01T03:19:12;13.57;;;7.70;;
15240;SDS011;7723;52.170;9.978;2023-03-01T03:21:41;13.33;;;7.97;;
15240;SDS011;7723;52.170;9.978;2023-03-01T03:24:08;15.20;;;7.93;;
15240;SDS011;7723;52.170;9.978;2023-03-01T03:26:36;14.77;;;7.73;;
15240;SDS011;7723;52.170;9.978;2023-03-01T03:29:03;12.80;;;7.50;;
15240;SDS011;7723;52.170;9.978;2023-03-01T03:31:30;15.83;;;8.13;;
15240;SDS011;7723;52.170;9.978;2023-03-01T03:33:59;13.53;;;7.60;;
15240;SDS011;7723;52.170;9.978;2023-03-01T03:36:26;13.33;;;7.73;;
15240;SDS011;7723;52.170;9.978;2023-03-01T03:38:53;18.20;;;8.37;;
15240;SDS011;7723;52.170;9.978;2023-03-01T03:41:20;17.97;;;9.53;;
15240;SDS011;7723;52.170;9.978;2023-03-01T03:43:47;23.93;;;10.30;;
15240;SDS011;7723;52.170;9.978;2023-03-01T03:46:14;19.73;;;10.87;;
15240;SDS011;7723;52.170;9.978;2023-03-01T03:48:42;22.17;;;10.80;;
15240;SDS011;7723;52.170;9.978;2023-03-01T03:51:12;19.83;;;10.33;;
15240;SDS011;7723;52.170;9.978;2023-03-01T03:53:40;28.00;;;11.47;;
15240;SDS011;7723;52.170;9.978;2023-03-01T03:56:08;21.77;;;10.93;;
15240;SDS011;7723;52.170;9.978;2023-03-01T03:58:35;25.93;;;12.10;;
15240;SDS011;7723;52.170;9.978;2023-03-01T04:01:03;23.40;;;12.67;;
15240;SDS011;7723;52.170;9.978;2023-03-01T04:03:30;23.37;;;11.93;;
15240;SDS011;7723;52.170;9.978;2023-03-01T04:05:58;23.33;;;12.77;;
15240;SDS011;7723;52.170;9.978;2023-03-01T04:08:28;20.77;;;11.70;;
15240;SDS011;7723;52.170;9.978;2023-03-01T04:10:59;23.57;;;12.67;;
15240;SDS011;7723;52.170;9.978;2023-03-01T04:13:48;21.67;;;11.83;;
15240;SDS011;7723;52.170;9.978;2023-03-01T04:16:16;27.23;;;12.90;;
15240;SDS011;7723;52.170;9.978;2023-03-01T04:18:44;22.63;;;13.33;;
15240;SDS011;7723;52.170;9.978;2023-03-01T04:21:11;22.93;;;12.70;;
15240;SDS011;7723;52.170;9.978;2023-03-01T04:23:40;23.27;;;12.30;;
15240;SDS011;7723;52.170;9.978;2023-03-01T04:26:07;25.53;;;12.80;;
15240;SDS011;7723;52.170;9.978;2023-03-01T04:28:35;24.57;;;12.97;;
15240;SDS011;7723;52.170;9.978;2023-03-01T04:31:06;21.43;;;12.10;;
15240;SDS011;7723;52.170;9.978;2023-03-01T04:33:39;24.30;;;13.30;;
15240;SDS011;7723;52.170;9.978;2023-03-01T04:36:07;21.97;;;11.77;;
15240;SDS011;7723;52.170;9.978;2023-03-01T04:38:35;20.77;;;12.30;;
15240;SDS011;7723;52.170;9.978;2023-03-01T04:41:05;24.13;;;12.00;;
15240;SDS011;7723;52.170;9.978;2023-03-01T04:43:33;21.93;;;11.03;;
15240;SDS011;7723;52.170;9.978;2023-03-01T04:46:01;22.40;;;12.10;;
15240;SDS011;7723;52.170;9.978;2023-03-01T04:48:29;23.80;;;12.30;;
15240;SDS011;7723;52.170;9.978;2023-03-01T04:50:57;22.77;;;11.73;;
15240;SDS011;7723;52.170;9.978;2023-03-01T04:53:25;20.53;;;11.73;;
15240;SDS011;7723;52.170;9.978;2023-03-01T04:55:53;18.17;;;10.27;;
15240;SDS011;7723;52.170;9.978;2023-03-01T04:58:22;19.40;;;10.70;;
15240;SDS011;7723;52.170;9.978;2023-03-01T05:00:49;19.87;;;10.40;;
15240;SDS011;7723;52.170;9.978;2023-03-01T05:03:18;18.97;;;9.90;;
15240;SDS011;7723;52.170;9.978;2023-03-01T05:05:49;19.80;;;9.67;;
15240;SDS011;7723;52.170;9.978;2023-03-01T05:08:18;15.73;;;8.90;;
15240;SDS011;7723;52.170;9.978;2023-03-01T05:10:46;19.40;;;9.33;;
15240;SDS011;7723;52.170;9.978;2023-03-01T05:13:15;19.97;;;10.03;;
15240;SDS011;7723;52.170;9.978;2023-03-01T05:15:49;17.07;;;8.43;;
15240;SDS011;7723;52.170;9.978;2023-03-01T05:18:21;20.87;;;8.77;;
15240;SDS011;7723;52.170;9.978;2023-03-01T05:20:51;17.03;;;8.93;;
15240;SDS011;7723;52.170;9.978;2023-03-01T05:23:21;16.90;;;9.57;;
15240;SDS011;7723;52.170;9.978;2023-03-01T05:25:48;16.87;;;9.33;;
15240;SDS011;7723;52.170;9.978;2023-03-01T05:28:18;20.93;;;9.27;;
15240;SDS011;7723;52.170;9.978;2023-03-01T05:30:46;20.97;;;10.43;;
15240;SDS011;7723;52.170;9.978;2023-03-01T05:33:18;17.53;;;9.03;;
15240;SDS011;7723;52.170;9.978;2023-03-01T05:35:47;21.23;;;11.00;;
15240;SDS011;7723;52.170;9.978;2023-03-01T05:38:15;23.57;;;10.33;;
15240;SDS011;7723;52.170;9.978;2023-03-01T05:40:43;21.13;;;10.33;;
15240;SDS011;7723;52.170;9.978;2023-03-01T05:43:12;17.67;;;9.70;;
15240;SDS011;7723;52.170;9.978;2023-03-01T05:45:41;18.57;;;10.80;;
15240;SDS011;7723;52.170;9.978;2023-03-01T05:48:10;17.57;;;10.20;;
15240;SDS011;7723;52.170;9.978;2023-03-01T05:50:40;18.47;;;9.87;;
15240;SDS011;7723;52.170;9.978;2023-03-01T05:53:10;18.10;;;9.93;;
15240;SDS011;7723;52.170;9.978;2023-03-01T05:55:38;20.10;;;9.87;;
15240;SDS011;7723;52.170;9.978;2023-03-01T05:58:07;20.10;;;8.97;;
15240;SDS011;7723;52.170;9.978;2023-03-01T06:00:36;18.33;;;9.83;;
15240;SDS011;7723;52.170;9.978;2023-03-01T06:03:03;19.37;;;10.40;;
15240;SDS011;7723;52.170;9.978;2023-03-01T06:05:30;20.23;;;9.73;;
15240;SDS011;7723;52.170;9.978;2023-03-01T06:08:00;16.73;;;10.00;;
15240;SDS011;7723;52.170;9.978;2023-03-01T06:10:27;20.03;;;10.00;;
15240;SDS011;7723;52.170;9.978;2023-03-01T06:12:55;19.77;;;9.43;;
15240;SDS011;7723;52.170;9.978;2023-03-01T06:15:23;21.10;;;10.03;;
15240;SDS011;7723;52.170;9.978;2023-03-01T06:17:51;18.33;;;9.30;;
15240;SDS011;7723;52.170;9.978;2023-03-01T06:20:20;18.97;;;9.43;;
15240;SDS011;7723;52.170;9.978;2023-03-01T06:22:48;19.13;;;9.83;;
15240;SDS011;7723;52.170;9.978;2023-03-01T06:25:18;17.17;;;9.20;;
15240;SDS011;7723;52.170;9.978;2023-03-01T06:27:47;17.43;;;9.20;;
15240;SDS011;7723;52.170;9.978;2023-03-01T06:30:15;21.50;;;9.87;;
15240;SDS011;7723;52.170;9.978;2023-03-01T06:32:43;22.97;;;9.27;;
15240;SDS011;7723;52.170;9.978;2023-03-01T06:35:11;21.30;;;10.60;;
15240;SDS011;7723;52.170;9.978;2023-03-01T06:37:39;17.33;;;8.97;;
15240;SDS011;7723;52.170;9.978;2023-03-01T06:40:07;15.60;;;8.40;;
15240;SDS011;7723;52.170;9.978;2023-03-01T06:42:38;18.07;;;8.63;;
15240;SDS011;7723;52.170;9.978;2023-03-01T06:45:08;17.20;;;9.20;;
15240;SDS011;7723;52.170;9.978;2023-03-01T06:47:36;18.60;;;9.43;;
15240;SDS011;7723;52.170;9.978;2023-03-01T06:50:03;16.30;;;8.83;;
15240;SDS011;7723;52.170;9.978;2023-03-01T06:54:58;16.60;;;9.30;;
15240;SDS011;7723;52.170;9.978;2023-03-01T06:57:25;18.73;;;9.50;;
15240;SDS011;7723;52.170;9.978;2023-03-01T06:59:55;17.87;;;9.23;;
15240;SDS011;7723;52.170;9.978;2023-03-01T07:02:22;15.60;;;8.23;;
15240;SDS011;7723;52.170;9.978;2023-03-01T07:04:49;20.00;;;8.83;;
15240;SDS011;7723;52.170;9.978;2023-03-01T07:07:17;15.20;;;8.47;;
15240;SDS011;7723;52.170;9.978;2023-03-01T07:09:45;21.23;;;8.00;;
15240;SDS011;7723;52.170;9.978;2023-03-01T07:12:12;12.97;;;7.93;;
15240;SDS011;7723;52.170;9.978;2023-03-01T07:14:39;12.77;;;7.40;;
15240;SDS011;7723;52.170;9.978;2023-03-01T07:17:08;17.83;;;7.57;;
15240;SDS011;7723;52.170;9.978;2023-03-01T07:19:35;11.73;;;6.60;;
15240;SDS011;7723;52.170;9.978;2023-03-01T07:22:03;11.87;;;7.27;;
15240;SDS011;7723;52.170;9.978;2023-03-01T07:24:32;10.43;;;6.53;;
15240;SDS011;7723;52.170;9.978;2023-03-01T07:26:59;15.83;;;7.10;;
15240;SDS011;7723;52.170;9.978;2023-03-01T07:29:27;10.20;;;6.38;;
15240;SDS011;7723;52.170;9.978;2023-03-01T07:31:55;11.93;;;6.65;;
15240;SDS011;7723;52.170;9.978;2023-03-01T07:34:23;10.48;;;6.32;;
15240;SDS011;7723;52.170;9.978;2023-03-01T07:36:50;10.98;;;6.72;;
15240;SDS011;7723;52.170;9.978;2023-03-01T07:39:18;10.50;;;6.65;;
15240;SDS011;7723;52.170;9.978;2023-03-01T07:41:45;8.98;;;5.90;;
15240;SDS011;7723;52.170;9.978;2023-03-01T07:44:12;12.68;;;6.50;;
15240;SDS011;7723;52.170;9.978;2023-03-01T07:46:40;7.50;;;5.93;;
15240;SDS011;7723;52.170;9.978;2023-03-01T07:49:07;11.82;;;7.22;;
15240;SDS011;7723;52.170;9.978;2023-03-01T07:51:36;8.77;;;6.32;;
15240;SDS011;7723;52.170;9.978;2023-03-01T07:54:03;8.55;;;6.45;;
15240;SDS011;7723;52.170;9.978;2023-03-01T07:56:30;11.98;;;6.35;;
15240;SDS011;7723;52.170;9.978;2023-03-01T07:58:58;9.18;;;6.95;;
15240;SDS011;7723;52.170;9.978;2023-03-01T08:01:25;10.65;;;6.90;;
15240;SDS011;7723;52.170;9.978;2023-03-01T08:03:52;11.82;;;7.43;;
15240;SDS011;7723;52.170;9.978;2023-03-01T08:06:20;13.57;;;7.73;;
15240;SDS011;7723;52.170;9.978;2023-03-01T08:08:48;9.30;;;6.72;;
15240;SDS011;7723;52.170;9.978;2023-03-01T08:11:15;15.15;;;8.25;;
15240;SDS011;7723;52.170;9.978;2023-03-01T08:13:43;8.80;;;6.97;;
15240;SDS011;7723;52.170;9.978;2023-03-01T08:16:10;11.38;;;7.25;;
15240;SDS011;7723;52.170;9.978;2023-03-01T08:18:39;13.07;;;7.38;;
15240;SDS011;7723;52.170;9.978;2023-03-01T08:21:07;11.27;;;6.97;;
15240;SDS011;7723;52.170;9.978;2023-03-01T08:23:36;12.27;;;7.88;;
15240;SDS011;7723;52.170;9.978;2023-03-01T08:26:06;11.75;;;8.27;;
15240;SDS011;7723;52.170;9.978;2023-03-01T08:28:35;10.43;;;7.72;;
15240;SDS011;7723;52.170;9.978;2023-03-01T08:31:02;12.85;;;8.77;;
15240;SDS011;7723;52.170;9.978;2023-03-01T08:33:29;13.55;;;8.23;;
15240;SDS011;7723;52.170;9.978;2023-03-01T08:36:03;12.05;;;8.05;;
15240;SDS011;7723;52.170;9.978;2023-03-01T08:38:32;12.70;;;7.78;;
15240;SDS011;7723;52.170;9.978;2023-03-01T08:40:59;15.30;;;8.57;;
15240;SDS011;7723;52.170;9.978;2023-03-01T08:43:28;11.13;;;7.35;;
15240;SDS011;7723;52.170;9.978;2023-03-01T08:45:56;9.52;;;6.68;;
15240;SDS011;7723;52.170;9.978;2023-03-01T08:48:23;10.18;;;7.38;;
15240;SDS011;7723;52.170;9.978;2023-03-01T08:50:50;11.57;;;7.47;;
15240;SDS011;7723;52.170;9.978;2023-03-01T08:53:17;15.65;;;8.23;;
15240;SDS011;7723;52.170;9.978;2023-03-01T08:55:44;9.25;;;6.78;;
15240;SDS011;7723;52.170;9.978;2023-03-01T08:58:11;12.77;;;6.93;;
15240;SDS011;7723;52.170;9.978;2023-03-01T09:00:40;9.20;;;7.80;;
15240;SDS011;7723;52.170;9.978;2023-03-01T09:03:07;10.10;;;7.15;;
15240;SDS011;7723;52.170;9.978;2023-03-01T09:05:34;12.02;;;8.15;;
15240;SDS011;7723;52.170;9.978;2023-03-01T09:08:02;10.40;;;7.10;;
15240;SDS011;7723;52.170;9.978;2023-03-01T09:10:29;8.98;;;7.20;;
15240;SDS011;7723;52.170;9.978;2023-03-01T09:12:56;11.93;;;8.15;;
15240;SDS011;7723;52.170;9.978;2023-03-01T09:15:23;12.20;;;7.22;;
15240;SDS011;7723;52.170;9.978;2023-03-01T09:17:51;9.98;;;7.40;;
15240;SDS011;7723;52.170;9.978;2023-03-01T09:20:19;10.50;;;7.00;;
15240;SDS011;7723;52.170;9.978;2023-03-01T09:22:46;10.63;;;8.38;;
15240;SDS011;7723;52.170;9.978;2023-03-01T09:25:13;9.18;;;6.95;;
15240;SDS011;7723;52.170;9.978;2023-03-01T09:27:41;9.98;;;6.25;;
15240;SDS011;7723;52.170;9.978;2023-03-01T09:30:08;9.95;;;7.80;;
15240;SDS011;7723;52.170;9.978;2023-03-01T09:32:36;9.45;;;7.28;;
15240;SDS011;7723;52.170;9.978;2023-03-01T09:35:09;10.73;;;7.18;;
15240;SDS011;7723;52.170;9.978;2023-03-01T09:37:36;11.02;;;6.90;;
15240;SDS011;7723;52.170;9.978;2023-03-01T09:40:05;8.77;;;6.13;;
15240;SDS011;7723;52.170;9.978;2023-03-01T09:42:45;8.75;;;6.35;;
15240;SDS011;7723;52.170;9.978;2023-03-01T09:45:18;10.32;;;6.50;;
15240;SDS011;7723;52.170;9.978;2023-03-01T09:47:55;12.88;;;6.43;;
15240;SDS011;7723;52.170;9.978;2023-03-01T09:50:24;10.55;;;7.68;;
15240;SDS011;7723;52.170;9.978;2023-03-01T09:52:58;10.43;;;6.97;;
15240;SDS011;7723;52.170;9.978;2023-03-01T09:55:30;12.05;;;7.57;;
15240;SDS011;7723;52.170;9.978;2023-03-01T09:58:01;13.30;;;7.15;;
15240;SDS011;7723;52.170;9.978;2023-03-01T10:00:41;8.75;;;6.88;;
15240;SDS011;7723;52.170;9.978;2023-03-01T10:03:12;15.13;;;6.95;;
15240;SDS011;7723;52.170;9.978;2023-03-01T10:05:59;9.60;;;6.95;;
15240;SDS011;7723;52.170;9.978;2023-03-01T10:08:33;12.75;;;7.80;;
15240;SDS011;7723;52.170;9.978;2023-03-01T10:11:04;11.57;;;7.55;;
15240;SDS011;7723;52.170;9.978;2023-03-01T10:13:42;14.43;;;7.57;;
15240;SDS011;7723;52.170;9.978;2023-03-01T10:16:19;13.07;;;8.63;;
15240;SDS011;7723;52.170;9.978;2023-03-01T10:18:53;10.07;;;7.10;;
15240;SDS011;7723;52.170;9.978;2023-03-01T10:21:26;11.88;;;6.97;;
15240;SDS011;7723;52.170;9.978;2023-03-01T10:23:57;13.40;;;8.43;;
15240;SDS011;7723;52.170;9.978;2023-03-01T10:26:47;14.00;;;6.85;;
15240;SDS011;7723;52.170;9.978;2023-03-01T10:29:17;11.43;;;6.57;;
15240;SDS011;7723;52.170;9.978;2023-03-01T10:31:50;12.85;;;6.45;;
15240;SDS011;7723;52.170;9.978;2023-03-01T10:34:19;9.85;;;6.53;;
15240;SDS011;7723;52.170;9.978;2023-03-01T10:36:55;9.35;;;6.53;;
15240;SDS011;7723;52.170;9.978;2023-03-01T10:39:24;11.10;;;6.50;;
15240;SDS011;7723;52.170;9.978;2023-03-01T10:41:54;7.50;;;5.15;;
15240;SDS011;7723;52.170;9.978;2023-03-01T10:44:37;11.02;;;6.13;;
15240;SDS011;7723;52.170;9.978;2023-03-01T10:47:11;8.70;;;6.07;;
15240;SDS011;7723;52.170;9.978;2023-03-01T10:49:52;7.55;;;5.00;;
15240;SDS011;7723;52.170;9.978;2023-03-01T10:52:24;12.18;;;4.95;;
15240;SDS011;7723;52.170;9.978;2023-03-01T10:54:54;6.88;;;4.53;;
15240;SDS011;7723;52.170;9.978;2023-03-01T10:57:29;8.00;;;4.68;;
15240;SDS011;7723;52.170;9.978;2023-03-01T11:00:09;7.63;;;4.47;;
15240;SDS011;7723;52.170;9.978;2023-03-01T11:02:48;8.13;;;4.50;;
15240;SDS011;7723;52.170;9.978;2023-03-01T11:05:19;7.80;;;4.95;;
15240;SDS011;7723;52.170;9.978;2023-03-01T11:07:51;8.32;;;4.40;;
15240;SDS011;7723;52.170;9.978;2023-03-01T11:10:22;8.57;;;4.03;;
15240;SDS011;7723;52.170;9.978;2023-03-01T11:12:51;8.38;;;5.70;;
15240;SDS011;7723;52.170;9.978;2023-03-01T11:15:20;8.30;;;5.72;;
15240;SDS011;7723;52.170;9.978;2023-03-01T11:17:49;8.43;;;5.17;;
15240;SDS011;7723;52.170;9.978;2023-03-01T11:20:19;7.93;;;4.40;;
15240;SDS011;7723;52.170;9.978;2023-03-01T11:22:54;7.60;;;4.47;;
15240;SDS011;7723;52.170;9.978;2023-03-01T11:25:23;8.73;;;4.03;;
15240;SDS011;7723;52.170;9.978;2023-03-01T11:27:53;9.55;;;4.20;;
15240;SDS011;7723;52.170;9.978;2023-03-01T11:30:23;6.22;;;3.92;;
15240;SDS011;7723;52.170;9.978;2023-03-01T11:32:56;6.50;;;4.10;;
15240;SDS011;7723;52.170;9.978;2023-03-01T11:35:32;5.70;;;3.38;;
15240;SDS011;7723;52.170;9.978;2023-03-01T11:38:09;5.47;;;3.20;;
15240;SDS011;7723;52.170;9.978;2023-03-01T11:40:47;5.88;;;3.83;;
15240;SDS011;7723;52.170;9.978;2023-03-01T11:43:26;8.45;;;4.05;;
15240;SDS011;7723;52.170;9.978;2023-03-01T11:46:02;5.78;;;3.17;;
15240;SDS011;7723;52.170;9.978;2023-03-01T11:48:52;6.07;;;3.00;;
15240;SDS011;7723;52.170;9.978;2023-03-01T11:51:35;5.75;;;3.25;;
15240;SDS011;7723;52.170;9.978;2023-03-01T11:54:17;5.53;;;3.08;;
15240;SDS011;7723;52.170;9.978;2023-03-01T11:56:54;5.63;;;3.65;;
15240;SDS011;7723;52.170;9.978;2023-03-01T11:59:34;7.03;;;3.20;;
15240;SDS011;7723;52.170;9.978;2023-03-01T12:02:24;4.43;;;3.10;;
15240;SDS011;7723;52.170;9.978;2023-03-01T12:05:10;7.13;;;3.78;;
15240;SDS011;7723;52.170;9.978;2023-03-01T12:07:52;5.10;;;3.08;;
15240;SDS011;7723;52.170;9.978;2023-03-01T12:10:25;8.27;;;3.92;;
15240;SDS011;7723;52.170;9.978;2023-03-01T12:12:58;6.82;;;3.17;;
15240;SDS011;7723;52.170;9.978;2023-03-01T12:15:55;4.43;;;2.65;;
15240;SDS011;7723;52.170;9.978;2023-03-01T12:18:49;6.43;;;3.28;;
15240;SDS011;7723;52.170;9.978;2023-03-01T12:21:38;5.18;;;3.55;;
15240;SDS011;7723;52.170;9.978;2023-03-01T12:24:25;6.80;;;4.05;;
15240;SDS011;7723;52.170;9.978;2023-03-01T12:27:20;7.03;;;3.20;;
15240;SDS011;7723;52.170;9.978;2023-03-01T12:30:15;9.98;;;3.42;;
15240;SDS011;7723;52.170;9.978;2023-03-01T12:32:54;7.97;;;3.75;;
15240;SDS011;7723;52.170;9.978;2023-03-01T12:35:33;5.45;;;3.40;;
15240;SDS011;7723;52.170;9.978;2023-03-01T12:38:15;7.38;;;3.30;;
15240;SDS011;7723;52.170;9.978;2023-03-01T12:41:01;6.85;;;3.08;;
15240;SDS011;7723;52.170;9.978;2023-03-01T12:43:46;5.32;;;3.30;;
15240;SDS011;7723;52.170;9.978;2023-03-01T12:46:23;8.90;;;4.55;;
15240;SDS011;7723;52.170;9.978;2023-03-01T12:49:01;5.45;;;3.15;;
15240;SDS011;7723;52.170;9.978;2023-03-01T12:51:34;5.03;;;3.53;;
15240;SDS011;7723;52.170;9.978;2023-03-01T12:54:05;5.07;;;3.13;;
15240;SDS011;7723;52.170;9.978;2023-03-01T12:56:40;5.68;;;2.95;;
15240;SDS011;7723;52.170;9.978;2023-03-01T12:59:14;5.30;;;3.00;;
15240;SDS011;7723;52.170;9.978;2023-03-01T13:01:46;7.35;;;3.42;;
15240;SDS011;7723;52.170;9.978;2023-03-01T13:04:21;6.28;;;3.15;;
15240;SDS011;7723;52.170;9.978;2023-03-01T13:07:11;6.13;;;3.30;;
15240;SDS011;7723;52.170;9.978;2023-03-01T13:09:51;5.35;;;3.20;;
15240;SDS011;7723;52.170;9.978;2023-03-01T13:12:42;5.05;;;3.53;;
15240;SDS011;7723;52.170;9.978;2023-03-01T13:15:29;5.75;;;3.15;;
15240;SDS011;7723;52.170;9.978;2023-03-01T13:17:59;6.07;;;2.90;;
15240;SDS011;7723;52.170;9.978;2023-03-01T13:20:29;5.68;;;2.90;;
15240;SDS011;7723;52.170;9.978;2023-03-01T13:23:03;4.90;;;2.92;;
15240;SDS011;7723;52.170;9.978;2023-03-01T13:25:33;5.32;;;2.72;;
15240;SDS011;7723;52.170;9.978;2023-03-01T13:31:09;7.32;;;3.47;;
15240;SDS011;7723;52.170;9.978;2023-03-01T13:33:40;5.68;;;2.97;;
15240;SDS011;7723;52.170;9.978;2023-03-01T13:36:10;3.15;;;2.28;;
15240;SDS011;7723;52.170;9.978;2023-03-01T13:38:59;6.78;;;2.80;;
15240;SDS011;7723;52.170;9.978;2023-03-01T13:44:19;4.13;;;2.97;;
15240;SDS011;7723;52.170;9.978;2023-03-01T13:46:53;4.68;;;2.60;;
15240;SDS011;7723;52.170;9.978;2023-03-01T13:49:25;5.75;;;2.78;;
15240;SDS011;7723;52.170;9.978;2023-03-01T13:51:54;5.85;;;2.70;;
15240;SDS011;7723;52.170;9.978;2023-03-01T13:54:24;5.45;;;2.67;;
15240;SDS011;7723;52.170;9.978;2023-03-01T13:56:54;4.82;;;2.20;;
15240;SDS011;7723;52.170;9.978;2023-03-01T13:59:23;6.43;;;2.72;;
15240;SDS011;7723;52.170;9.978;2023-03-01T14:01:56;4.35;;;2.90;;
15240;SDS011;7723;52.170;9.978;2023-03-01T14:04:25;3.67;;;2.90;;
15240;SDS011;7723;52.170;9.978;2023-03-01T14:07:08;3.70;;;2.70;;
15240;SDS011;7723;52.170;9.978;2023-03-01T14:09:37;5.03;;;2.70;;
15240;SDS011;7723;52.170;9.978;2023-03-01T14:12:12;3.33;;;2.85;;
15240;SDS011;7723;52.170;9.978;2023-03-01T14:14:48;6.03;;;3.90;;
15240;SDS011;7723;52.170;9.978;2023-03-01T14:17:25;7.22;;;3.67;;
15240;SDS011;7723;52.170;9.978;2023-03-01T14:20:12;5.25;;;3.22;;
15240;SDS011;7723;52.170;9.978;2023-03-01T14:22:43;7.20;;;4.05;;
15240;SDS011;7723;52.170;9.978;2023-03-01T14:25:22;3.78;;;2.75;;
15240;SDS011;7723;52.170;9.978;2023-03-01T14:27:54;5.53;;;3.15;;
15240;SDS011;7723;52.170;9.978;2023-03-01T14:30:27;9.00;;;3.40;;
15240;SDS011;7723;52.170;9.978;2023-03-01T14:33:00;4.40;;;2.95;;
15240;SDS011;7723;52.170;9.978;2023-03-01T14:35:30;6.30;;;3.25;;
15240;SDS011;7723;52.170;9.978;2023-03-01T14:37:59;8.65;;;3.47;;
15240;SDS011;7723;52.170;9.978;2023-03-01T14:40:27;4.15;;;2.78;;
15240;SDS011;7723;52.170;9.978;2023-03-01T14:42:56;4.95;;;3.33;;
15240;SDS011;7723;52.170;9.978;2023-03-01T14:45:27;3.22;;;2.47;;
15240;SDS011;7723;52.170;9.978;2023-03-01T14:47:55;5.07;;;2.92;;
15240;SDS011;7723;52.170;9.978;2023-03-01T14:50:28;6.50;;;4.10;;
15240;SDS011;7723;52.170;9.978;2023-03-01T14:52:58;9.80;;;5.03;;
15240;SDS011;7723;52.170;9.978;2023-03-01T14:55:29;6.75;;;3.70;;
15240;SDS011;7723;52.170;9.978;2023-03-01T14:57:58;3.65;;;2.67;;
15240;SDS011;7723;52.170;9.978;2023-03-01T15:00:26;5.57;;;3.35;;
15240;SDS011;7723;52.170;9.978;2023-03-01T15:02:55;4.45;;;2.88;;
15240;SDS011;7723;52.170;9.978;2023-03-01T15:05:27;4.22;;;2.78;;
15240;SDS011;7723;52.170;9.978;2023-03-01T15:07:56;4.55;;;2.92;;
15240;SDS011;7723;52.170;9.978;2023-03-01T15:10:26;6.68;;;3.88;;
15240;SDS011;7723;52.170;9.978;2023-03-01T15:12:55;5.35;;;3.10;;
15240;SDS011;7723;52.170;9.978;2023-03-01T15:15:36;6.38;;;3.28;;
15240;SDS011;7723;52.170;9.978;2023-03-01T15:18:17;4.35;;;2.85;;
15240;SDS011;7723;52.170;9.978;2023-03-01T15:20:48;5.10;;;2.60;;
15240;SDS011;7723;52.170;9.978;2023-03-01T15:23:18;4.13;;;2.25;;